createdAt,value
2018-06-20T00:01:22.422Z,14.90
2018-06-20T00:03:51.099Z,14.90
2018-06-20T00:06:20.185Z,14.80
2018-06-20T00:08:52.219Z,14.80
2018-06-20T00:11:27.982Z,14.70
2018-06-20T00:13:57.465Z,14.70
2018-06-20T00:16:27.439Z,14.60
2018-06-20T00:18:57.941Z,14.60
2018-06-20T00:21:28.248Z,14.50
2018-06-20T00:24:00.837Z,14.50
2018-06-20T00:26:30.572Z,14.50
2018-06-20T00:28:59.807Z,14.50
2018-06-20T00:31:29.399Z,14.50
2018-06-20T00:34:02.804Z,14.50
2018-06-20T00:36:32.123Z,14.40
2018-06-20T00:39:01.976Z,14.50
2018-06-20T00:41:37.299Z,14.40
2018-06-20T00:44:06.216Z,14.40
2018-06-20T00:46:35.950Z,14.40
2018-06-20T00:49:06.897Z,14.50
2018-06-20T00:51:36.186Z,14.50
2018-06-20T00:54:05.480Z,14.50
2018-06-20T00:56:37.581Z,14.60
2018-06-20T00:59:08.222Z,14.70
2018-06-20T01:01:39.034Z,14.70
2018-06-20T01:04:09.063Z,14.70
2018-06-20T01:06:42.600Z,14.70
2018-06-20T01:09:12.864Z,14.80
2018-06-20T01:11:42.372Z,14.80
2018-06-20T01:14:11.247Z,14.80
2018-06-20T01:16:40.691Z,14.80
2018-06-20T01:19:10.692Z,14.80
2018-06-20T01:21:40.051Z,14.80
2018-06-20T01:24:10.358Z,14.80
2018-06-20T01:26:39.224Z,14.80
2018-06-20T01:29:09.360Z,14.80
2018-06-20T01:31:39.360Z,14.80
2018-06-20T01:34:09.076Z,14.80
2018-06-20T01:36:37.638Z,14.80
2018-06-20T01:39:09.627Z,14.80
2018-06-20T01:41:50.062Z,14.80
2018-06-20T01:44:19.556Z,14.80
2018-06-20T01:46:48.115Z,14.80
2018-06-20T01:49:19.994Z,14.80
2018-06-20T01:51:49.596Z,14.80
2018-06-20T01:54:18.634Z,14.80
2018-06-20T01:56:47.235Z,14.80
2018-06-20T01:59:16.178Z,14.90
2018-06-20T02:04:21.452Z,14.80
2018-06-20T02:06:49.882Z,14.80
2018-06-20T02:09:18.943Z,14.80
2018-06-20T02:11:48.314Z,14.80
2018-06-20T02:14:18.814Z,14.80
2018-06-20T02:16:49.664Z,14.70
2018-06-20T02:19:25.752Z,14.70
2018-06-20T02:21:56.117Z,14.70
2018-06-20T02:24:24.782Z,14.70
2018-06-20T02:26:54.152Z,14.70
2018-06-20T02:29:22.483Z,14.60
2018-06-20T02:31:52.344Z,14.50
2018-06-20T02:34:23.677Z,14.40
2018-06-20T02:36:57.677Z,14.40
2018-06-20T02:39:27.092Z,14.30
2018-06-20T02:41:57.850Z,14.30
2018-06-20T02:44:27.978Z,14.30
2018-06-20T02:47:00.258Z,14.20
2018-06-20T02:49:29.659Z,14.20
2018-06-20T02:52:00.414Z,14.20
2018-06-20T02:54:30.318Z,14.10
2018-06-20T02:59:33.145Z,14.10
2018-06-20T03:02:02.059Z,14.10
2018-06-20T03:04:34.068Z,14.10
2018-06-20T03:09:39.622Z,14.20
2018-06-20T03:12:08.499Z,14.20
2018-06-20T03:14:42.879Z,14.30
2018-06-20T03:17:12.453Z,14.20
2018-06-20T03:19:42.599Z,14.30
2018-06-20T03:22:14.878Z,14.20
2018-06-20T03:24:44.531Z,14.20
2018-06-20T03:27:13.889Z,14.20
2018-06-20T03:29:47.975Z,14.20
2018-06-20T03:32:22.082Z,14.30
2018-06-20T03:34:53.251Z,14.40
2018-06-20T03:37:26.138Z,14.50
2018-06-20T03:39:55.842Z,14.60
2018-06-20T03:42:30.653Z,14.60
2018-06-20T03:44:59.282Z,14.70
2018-06-20T03:47:31.287Z,14.70
2018-06-20T03:50:03.635Z,14.80
2018-06-20T03:57:56.181Z,14.80
2018-06-20T04:00:29.867Z,14.90
2018-06-20T04:03:08.718Z,14.90
2018-06-20T04:05:38.918Z,15.00
2018-06-20T04:08:07.942Z,15.10
2018-06-20T04:10:36.194Z,15.20
2018-06-20T04:13:05.708Z,15.20
2018-06-20T04:15:34.236Z,15.30
2018-06-20T04:18:12.761Z,15.40
2018-06-20T04:20:43.918Z,15.50
2018-06-20T04:23:17.199Z,15.50
2018-06-20T04:25:49.246Z,15.50
2018-06-20T04:28:17.861Z,15.50
2018-06-20T04:30:56.834Z,15.50
2018-06-20T04:33:28.020Z,15.50
2018-06-20T04:35:58.060Z,15.60
2018-06-20T04:41:14.488Z,15.70
2018-06-20T04:43:43.066Z,15.70
2018-06-20T04:48:57.651Z,15.80
2018-06-20T04:51:43.013Z,15.90
2018-06-20T04:54:13.749Z,15.90
2018-06-20T04:56:43.664Z,15.90
2018-06-20T04:59:13.139Z,16.00
2018-06-20T05:01:42.114Z,16.00
2018-06-20T05:04:10.538Z,16.00
2018-06-20T05:06:39.792Z,16.10
2018-06-20T05:09:13.577Z,16.20
2018-06-20T05:11:42.046Z,16.20
2018-06-20T05:14:11.482Z,16.30
2018-06-20T05:16:42.685Z,16.30
2018-06-20T05:21:47.963Z,16.40
2018-06-20T05:24:25.075Z,16.40
2018-06-20T05:26:55.427Z,16.50
2018-06-20T05:29:41.683Z,16.60
2018-06-20T05:37:58.287Z,16.70
2018-06-20T05:40:27.460Z,16.70
2018-06-20T05:45:33.472Z,16.70
2018-06-20T05:48:02.716Z,16.70
2018-06-20T05:50:31.433Z,16.80
2018-06-20T05:53:00.823Z,16.80
2018-06-20T05:55:37.132Z,16.80
2018-06-20T05:58:13.585Z,16.90
2018-06-20T06:00:52.303Z,17.00
2018-06-20T06:03:21.202Z,17.00
2018-06-20T06:06:01.515Z,17.00
2018-06-20T06:08:30.817Z,17.00
2018-06-20T06:11:10.390Z,17.10
2018-06-20T06:13:39.724Z,17.00
2018-06-20T06:16:11.222Z,17.00
2018-06-20T06:18:48.047Z,17.00
2018-06-20T06:21:25.105Z,17.00
2018-06-20T06:26:35.040Z,16.90
2018-06-20T06:29:04.730Z,16.90
2018-06-20T06:31:48.348Z,16.90
2018-06-20T06:34:19.079Z,17.00
2018-06-20T06:36:52.748Z,17.10
2018-06-20T06:39:27.605Z,17.10
2018-06-20T06:41:59.016Z,17.10
2018-06-20T06:44:27.486Z,17.20
2018-06-20T06:46:56.555Z,17.20
2018-06-20T06:49:26.283Z,17.20
2018-06-20T06:52:05.019Z,17.20
2018-06-20T06:54:36.583Z,17.30
2018-06-20T06:57:06.596Z,17.30
2018-06-20T06:59:35.817Z,17.30
2018-06-20T07:02:17.486Z,17.30
2018-06-20T07:07:33.498Z,17.30
2018-06-20T07:12:53.247Z,17.50
2018-06-20T07:21:04.231Z,17.60
2018-06-20T07:23:38.693Z,17.70
2018-06-20T07:37:19.924Z,18.00
2018-06-20T07:42:31.451Z,18.10
2018-06-20T07:45:09.909Z,18.10
2018-06-20T07:47:55.036Z,18.20
2018-06-20T07:50:28.365Z,18.20
2018-06-20T07:53:03.131Z,18.30
2018-06-20T07:55:36.820Z,18.40
2018-06-20T07:58:07.889Z,18.60
2018-06-20T08:00:56.357Z,18.80
2018-06-20T08:03:31.303Z,19.10
2018-06-20T08:06:12.893Z,19.20
2018-06-20T08:08:49.170Z,19.30
2018-06-20T08:11:26.427Z,19.30
2018-06-20T08:14:01.198Z,19.30
2018-06-20T08:16:38.528Z,19.40
2018-06-20T08:19:18.872Z,19.50
2018-06-20T08:21:53.648Z,19.50
2018-06-20T08:24:24.332Z,19.50
2018-06-20T08:26:54.454Z,19.60
2018-06-20T08:29:23.836Z,19.70
2018-06-20T08:31:57.707Z,19.80
2018-06-20T08:34:26.010Z,20.00
2018-06-20T08:39:37.479Z,20.30
2018-06-20T08:42:09.024Z,20.40
2018-06-20T08:44:40.804Z,20.50
2018-06-20T08:47:12.465Z,20.60
2018-06-20T08:49:45.797Z,20.60
2018-06-20T08:52:30.525Z,20.60
2018-06-20T08:54:59.374Z,20.50
2018-06-20T08:57:32.156Z,20.40
2018-06-20T09:00:02.070Z,20.30
2018-06-20T09:02:36.757Z,20.20
2018-06-20T09:05:16.661Z,20.20
2018-06-20T09:09:53.330Z,20.10
2018-06-20T09:12:28.199Z,19.90
2018-06-20T09:15:02.040Z,19.80
2018-06-20T09:17:35.758Z,19.80
2018-06-20T09:20:05.065Z,19.80
2018-06-20T09:22:39.290Z,19.60
2018-06-20T09:25:11.268Z,19.60
2018-06-20T09:27:40.386Z,19.70
2018-06-20T09:30:09.153Z,19.80
2018-06-20T09:32:41.420Z,19.90
2018-06-20T09:35:13.649Z,20.00
2018-06-20T09:37:42.773Z,20.10
2018-06-20T09:40:15.304Z,20.20
2018-06-20T09:42:51.549Z,20.40
2018-06-20T09:45:20.314Z,20.40
2018-06-20T09:47:51.673Z,20.40
2018-06-20T09:50:26.252Z,20.50
2018-06-20T09:52:54.987Z,20.60
2018-06-20T09:55:25.397Z,20.70
2018-06-20T09:57:56.427Z,20.80
2018-06-20T10:03:19.605Z,20.90
2018-06-20T10:05:58.363Z,21.00
2018-06-20T10:08:33.488Z,21.10
2018-06-20T10:11:14.157Z,21.20
2018-06-20T10:13:44.175Z,21.20
2018-06-20T10:16:17.662Z,21.50
2018-06-20T10:18:54.471Z,21.70
2018-06-20T10:21:28.077Z,21.90
2018-06-20T10:23:58.532Z,21.90
2018-06-20T10:26:29.983Z,22.10
2018-06-20T10:28:59.023Z,22.10
2018-06-20T10:31:58.431Z,22.20
2018-06-20T10:34:33.139Z,22.30
2018-06-20T10:37:02.625Z,22.40
2018-06-20T10:39:44.057Z,22.70
2018-06-20T10:42:16.944Z,23.00
2018-06-20T10:44:47.814Z,23.10
2018-06-20T10:47:23.875Z,23.10
2018-06-20T10:49:53.179Z,23.20
2018-06-20T10:52:22.274Z,23.30
2018-06-20T10:54:52.970Z,23.40
2018-06-20T10:57:30.052Z,23.50
2018-06-20T11:00:10.572Z,23.60
2018-06-20T11:02:45.412Z,23.70
2018-06-20T11:05:20.338Z,23.70
2018-06-20T11:07:56.041Z,23.60
2018-06-20T11:10:36.130Z,23.50
2018-06-20T11:13:14.791Z,23.60
2018-06-20T11:18:27.251Z,23.90
2018-06-20T11:21:01.316Z,24.00
2018-06-20T11:23:34.124Z,24.10
2018-06-20T11:26:02.746Z,24.10
2018-06-20T11:28:31.808Z,24.10
2018-06-20T11:31:01.512Z,24.10
2018-06-20T11:33:29.776Z,24.00
2018-06-20T11:36:00.213Z,24.00
2018-06-20T11:38:29.573Z,24.00
2018-06-20T11:41:01.095Z,24.00
2018-06-20T11:43:31.735Z,24.00
2018-06-20T11:48:48.189Z,24.10
2018-06-20T11:53:59.506Z,24.30
2018-06-20T11:56:32.056Z,24.50
2018-06-20T12:02:18.841Z,25.00
2018-06-20T12:04:57.603Z,25.20
2018-06-20T12:07:33.769Z,25.40
2018-06-20T12:10:10.045Z,25.40
2018-06-20T12:12:46.711Z,25.40
2018-06-20T12:15:29.226Z,25.40
2018-06-20T12:20:52.407Z,25.30
2018-06-20T12:23:33.339Z,25.20
2018-06-20T12:43:09.668Z,25.70
2018-06-20T12:51:22.686Z,25.90
2018-06-20T12:54:14.536Z,25.80
2018-06-20T12:56:54.490Z,25.70
2018-06-20T13:07:43.302Z,25.50
2018-06-20T13:12:58.360Z,25.80
2018-06-20T13:15:34.939Z,25.80
2018-06-20T13:20:44.902Z,25.80
2018-06-20T13:23:26.281Z,25.80
2018-06-20T13:29:31.530Z,26.10
2018-06-20T13:32:09.269Z,26.10
2018-06-20T13:37:38.736Z,26.00
2018-06-20T13:40:26.287Z,26.10
2018-06-20T13:46:05.579Z,26.30
2018-06-20T13:51:25.531Z,26.80
2018-06-20T13:53:57.868Z,26.90
2018-06-20T13:56:27.747Z,26.90
2018-06-20T13:59:03.505Z,26.90
2018-06-20T14:01:35.143Z,27.00
2018-06-20T14:04:05.419Z,27.00
2018-06-20T14:09:20.262Z,26.90
2018-06-20T14:12:02.736Z,26.90
2018-06-20T14:14:43.172Z,27.00
2018-06-20T14:17:24.096Z,27.10
2018-06-20T14:22:54.784Z,27.10
2018-06-20T14:28:06.230Z,27.00
2018-06-20T14:33:22.484Z,27.00
2018-06-20T14:36:00.576Z,27.00
2018-06-20T14:38:38.049Z,26.80
2018-06-20T14:41:33.294Z,26.50
2018-06-20T14:44:21.029Z,26.40
2018-06-20T14:47:00.291Z,26.40
2018-06-20T14:55:17.125Z,26.10
2018-06-20T14:57:50.506Z,26.10
2018-06-20T15:00:30.724Z,26.20
2018-06-20T15:03:13.371Z,26.30
2018-06-20T15:08:41.798Z,26.40
2018-06-20T15:11:31.242Z,26.40
2018-06-20T15:14:09.528Z,26.30
2018-06-20T15:19:25.714Z,26.70
2018-06-20T15:33:20.110Z,31.50
2018-06-20T15:36:03.467Z,30.80
2018-06-20T15:41:18.665Z,31.40
2018-06-20T15:49:27.447Z,32.70
2018-06-20T15:57:56.670Z,32.10
2018-06-20T16:00:45.560Z,32.70
2018-06-20T16:03:39.066Z,33.30
2018-06-20T16:08:53.124Z,34.20
2018-06-20T16:11:28.639Z,34.20
2018-06-20T16:16:40.283Z,32.30
2018-06-20T16:22:02.048Z,30.70
2018-06-20T16:24:37.012Z,30.90
2018-06-20T16:27:16.873Z,31.30
2018-06-20T16:32:31.740Z,31.20
2018-06-20T16:35:12.190Z,31.30
2018-06-20T16:37:46.004Z,30.70
2018-06-20T16:40:15.983Z,29.90
2018-06-20T16:42:49.610Z,29.30
2018-06-20T16:45:27.731Z,28.90
2018-06-20T16:48:02.342Z,28.40
2018-06-20T16:50:38.108Z,27.90
2018-06-20T16:53:16.114Z,27.50
2018-06-20T16:55:48.232Z,27.30
2018-06-20T16:58:17.765Z,27.10
2018-06-20T17:06:12.915Z,26.40
2018-06-20T17:08:47.213Z,26.20
2018-06-20T17:11:23.997Z,26.00
2018-06-20T17:14:08.730Z,25.80
2018-06-20T17:16:48.581Z,25.50
2018-06-20T17:19:27.467Z,25.20
2018-06-20T17:24:59.956Z,25.00
2018-06-20T17:27:44.346Z,24.90
2018-06-20T17:30:15.845Z,24.90
2018-06-20T17:36:16.976Z,24.70
2018-06-20T17:38:46.012Z,24.60
2018-06-20T19:36:59.987Z,22.90
2018-06-20T19:39:35.115Z,21.90
2018-06-20T19:42:10.429Z,21.90
2018-06-20T19:44:39.662Z,21.80
2018-06-20T19:49:37.383Z,21.80
2018-06-20T19:52:10.191Z,21.80
2018-06-20T19:54:40.475Z,21.80
2018-06-20T19:57:11.519Z,21.80
2018-06-20T19:59:41.252Z,21.70
2018-06-20T20:05:34.198Z,21.70
2018-06-20T20:08:04.508Z,21.60
2018-06-20T20:10:38.847Z,21.50
2018-06-20T20:13:12.462Z,21.50
2018-06-20T20:15:42.853Z,21.50
2018-06-20T20:18:12.801Z,21.40
2018-06-20T20:20:43.438Z,21.40
2018-06-20T20:23:17.919Z,21.40
2018-06-20T20:25:55.357Z,21.30
2018-06-20T20:28:26.133Z,21.30
2018-06-20T20:31:00.391Z,21.30
2018-06-20T20:33:35.423Z,21.20
2018-06-20T20:36:04.668Z,21.20
2018-06-20T20:41:19.236Z,21.10
2018-06-20T20:43:49.550Z,21.10
2018-06-20T20:51:27.171Z,20.90
2018-06-20T20:54:04.759Z,20.80
2018-06-20T20:56:43.259Z,20.80
2018-06-20T20:59:13.046Z,20.70
2018-06-20T21:01:43.380Z,20.60
2018-06-20T21:04:12.058Z,20.50
2018-06-20T21:06:41.083Z,20.50
2018-06-20T21:09:11.121Z,20.40
2018-06-20T21:15:11.148Z,20.40
2018-06-20T21:17:41.515Z,20.40
2018-06-20T21:20:32.787Z,20.40
2018-06-20T21:23:02.860Z,20.40
2018-06-20T21:25:33.228Z,20.30
2018-06-20T21:28:04.471Z,20.30
2018-06-20T21:30:47.387Z,20.30
2018-06-20T21:33:21.986Z,20.30
2018-06-20T21:35:55.049Z,20.20
2018-06-20T21:38:30.875Z,20.20
2018-06-20T21:43:30.298Z,20.20
2018-06-20T21:46:00.206Z,20.20
2018-06-20T21:48:32.151Z,20.10
2018-06-20T21:51:01.265Z,20.10
2018-06-20T21:53:31.919Z,20.10
2018-06-20T21:56:00.247Z,20.10
2018-06-20T21:58:29.221Z,20.10
2018-06-20T22:03:33.400Z,20.00
2018-06-20T22:06:04.134Z,20.00
2018-06-20T22:08:34.621Z,19.90
2018-06-20T22:11:09.339Z,19.90
2018-06-20T22:13:37.860Z,19.90
2018-06-20T22:16:09.072Z,19.80
2018-06-20T22:18:38.518Z,19.80
2018-06-20T22:21:09.013Z,19.70
2018-06-20T22:23:38.331Z,19.70
2018-06-20T22:26:08.355Z,19.70
2018-06-20T22:28:41.451Z,19.70
2018-06-20T22:31:29.993Z,19.60
2018-06-20T22:37:02.407Z,19.60
2018-06-20T22:39:39.434Z,19.50
2018-06-20T22:42:13.701Z,19.60
2018-06-20T22:44:44.783Z,19.50
2018-06-20T22:49:47.950Z,19.50
2018-06-20T22:55:02.363Z,19.40
2018-06-20T22:57:30.884Z,19.40
2018-06-20T23:00:03.434Z,19.40
2018-06-20T23:02:31.604Z,19.40
2018-06-20T23:05:00.195Z,19.40
2018-06-20T23:07:36.868Z,19.40
2018-06-20T23:10:06.540Z,19.40
2018-06-20T23:12:36.631Z,19.40
2018-06-20T23:15:05.660Z,19.30
2018-06-20T23:17:34.372Z,19.30
2018-06-20T23:20:04.047Z,19.30
2018-06-20T23:22:33.718Z,19.30
2018-06-20T23:25:02.659Z,19.30
2018-06-20T23:27:30.987Z,19.30
2018-06-20T23:32:29.431Z,19.30
2018-06-20T23:34:59.025Z,19.30
2018-06-20T23:37:28.203Z,19.30
2018-06-20T23:39:57.134Z,19.30
2018-06-20T23:42:36.222Z,19.30
2018-06-20T23:45:06.331Z,19.20
2018-06-20T23:47:36.605Z,19.20
2018-06-20T23:50:10.493Z,19.10
2018-06-20T23:52:40.370Z,19.10
2018-06-20T23:55:18.512Z,19.10
